Dog Valley, California Weather observations

Data are for 10 minute period ending at time listed.
 Day   Time    Ave.   Ave.  Ave.  Vector   Max.   Total    Solar   
  of    of     Air    Rel.  Wind   Wind    Wind  Precip.   Rad.    
Year   Day     Temp.  Hum.  Speed  Dir.    Gust                    
2015   (PST)    F      %     mph   deg.    mph     in.     W/m2    
------------------------------------------------------------------- 
  63   11:00   41.0    34    2.0   166      7.0   15.05     663  
  63   12:00   41.0    38    1.0    35      7.0   15.05     439  
  63   13:00   47.0    34    2.0   135      5.0   15.05     797  
  63   14:00   48.0    30    1.0    91      6.0   15.05     753  
  63   15:00   49.0    24    2.0   119      6.0   15.05     653  
  63   16:00   45.0    29    1.0   113      5.0   15.05     225  
  63   17:00   42.0    33    0.0   333      7.0   15.05      43  
  63   18:00   32.0    61    1.0   299      3.0   15.05      15  
  63   19:00   27.0    70    0.0   285      2.0   15.05       1  
  63   20:00   25.0    76    0.0   285      2.0   15.05       0  
  63   21:00   23.0    77    0.0   285      0.0   15.05       0  
  63   22:00   22.0    81    0.0   286      0.0   15.05       0  
  63   23:00   21.0    82    0.0   266      1.0   15.05       0  
  64    0:00   19.0    84    0.0   277      0.0   15.05       0  
  64    1:00   19.0    86    0.0   199      0.0   15.05       0  
  64    2:00   17.0    87    0.0   270      0.0   15.05       0  
  64    3:00   16.0    89    0.0   273      0.0   15.05       0  
  64    4:00   16.0    90    0.0   279      0.0   15.05       0  
  64    5:00   16.0    90    0.0   279      0.0   15.05       0  
  64    6:00   15.0    91    0.0   279      0.0   15.05       0  
  64    7:00   15.0    89    0.0    27      0.0   15.05       3  
  64    8:00   22.0    91    0.0   129      1.0   15.05      72  
  64    9:00   37.0    60    1.0   112      2.0   15.05     359  
  64   10:00   42.0    39    1.0   107      3.0   15.05     178  

Return to Dog Valley, California graphs page.


Western Regional Climate Center,wrcc@dri.edu